Cox Field
KPRX : now visible

Airfield :











YOU CAN JOIN US ON...

 
LOGIN :

Register | Disclaimer

   EN    FR    IT 

 









Legend :    VFR   Marginal VFR   IFR   Intensive IFR   Very Intensive IFR
Visi :
Ceiling :
>= 8 km
>= 3000ft
5 to 8 km
1000 to 3000 ft
1500m to 5 km
500 to 1000 ft
800 to 1500m
200 to 500 ft
< 800m
< 200 ft
Symbols :   Thunderstorms  Fog  Heavy snow  Heavy precipitations  Wind > 20 kt






- Airport Elevation : 547 ft


KPRX - Cox Field

CURRENT METAR :
  • 070256Z AUTO 00000KT 10SM FEW060 OVC110 16/16 A3001 RMK AO2 SLP160 T01560156 51016

EXPIRED METARs :
  • 070156Z AUTO 34007KT 10SM FEW030 BKN120 16/16 A3000 RMK AO2 SLP158 T01610156
  • 070056Z AUTO 33007KT 10SM BKN120 19/18 A2997 RMK AO2 SLP147 T01890183

TAF N/A
KZFW FIR / North America



MET'MAP, your aeronautical weather chart ! - Copyright ORBIFLY December 2007 - Disclaimer

ORBIFLY MET'MAP TEAM :

Programming & Development : Alexandra Zaïnal
Original concept : Baudouin d'Aumeries
Technical & hardware support : Manuel Goepfert
Assistance : Marc-Olivier Méhu




SOURCES & CREDITS :

   NOAA       Earth
Advisory